Chili, New Mexico
Current Conditions -  °F | °C
As of 9:35 PM on Friday 24 Oct 2014 (Local Time) from KLAM Reporting Station
Clear Clear  
Wind Chill: 62°   Ceiling: Unl
Heat Index: 62°   Visibility: 10mi
Dew Point: 22°   Wind: 5mph
Humidity: 21%   Direction: 260°W
Pressure: 30.38"   Gusts: NA
Location:  36.0385°N, 106.224°W
Report Text: KLAM 250335Z AUTO 26004KT 10SM CLR 17/M06 A3038 RMK AO2 T01691056
Loading
Personal Weather Stations






























Interactive Weather Map
Tropical Storm Tracking
New forecast layout! Learn more

10-Day Weather Forecast

Advertisements
Track Severe Weather on mobile